Time;durP1;ratioP1;P1;durP2;ratioP2;P2;SDS_P1;SDS_P2;PMS_P1;PMS_P2;Temp;Humidity;BMP_temperature;BMP_pressure;BME280_temperature;BME280_humidity;BME280_pressure;Samples;Min_cycle;Max_cycle;Signal;HPM_P1;HPM_P2
2022/07/16 00:03:25;;;;;;;2.13;1.08;;;19.50;54.20;;;18.15;42.97;100315.25;10444329;27;96773;-92
2022/07/16 00:08:28;;;;;;;2.72;1.10;;;19.50;54.30;;;18.10;43.03;100311.56;10445521;27;97502;-91
2022/07/16 00:13:31;;;;;;;2.17;1.42;;;19.40;54.20;;;18.08;42.77;100311.78;10443624;27;96693;-89
2022/07/16 00:23:57;;;;;;;1.90;1.20;;;19.40;54.40;;;18.05;43.67;100300.63;10447311;27;96666;-93
2022/07/16 00:29:00;;;;;;;3.95;1.60;;;19.40;54.90;;;17.92;43.92;100307.69;10444373;27;96579;-93
2022/07/16 00:34:08;;;;;;;2.22;0.93;;;19.20;55.90;;;17.73;44.79;100305.91;10409647;27;96495;-92
2022/07/16 00:39:13;;;;;;;2.72;1.15;;;19.00;55.90;;;17.52;45.35;100298.94;10431500;27;97248;-92
2022/07/16 00:44:19;;;;;;;2.22;1.13;;;18.80;56.30;;;17.36;45.42;100296.69;10421269;27;97074;-93
2022/07/16 00:49:22;;;;;;;4.13;0.82;;;18.70;56.50;;;17.21;45.62;100294.22;10429010;27;96647;-93
2022/07/16 00:54:25;;;;;;;1.60;1.20;;;18.60;56.80;;;17.09;46.14;100301.25;10446280;27;96799;-92
2022/07/16 00:59:28;;;;;;;2.22;0.93;;;18.40;57.20;;;16.93;46.24;100307.06;10427308;27;96775;-92
2022/07/16 01:04:31;;;;;;;3.08;1.10;;;18.30;57.40;;;16.91;46.96;100309.13;10408235;27;96610;-92
2022/07/16 01:09:36;;;;;;;2.13;1.00;;;18.20;57.50;;;16.92;46.91;100310.78;10427771;27;96641;-91
2022/07/16 01:14:40;;;;;;;2.78;0.90;;;18.20;57.70;;;16.84;47.02;100298.38;10445129;27;97642;-95
2022/07/16 01:19:43;;;;;;;3.25;1.40;;;18.20;57.90;;;16.74;47.23;100309.53;10437868;27;96473;-93
2022/07/16 01:24:48;;;;;;;1.98;1.00;;;18.10;58.10;;;16.69;47.61;100303.94;10403046;28;96706;-93
2022/07/16 01:29:51;;;;;;;2.00;1.10;;;18.00;58.30;;;16.66;47.81;100307.00;10403449;27;96762;-91
2022/07/16 01:34:54;;;;;;;2.95;1.05;;;18.00;58.40;;;16.55;47.47;100299.56;10408268;27;96599;-92
2022/07/16 01:39:57;;;;;;;2.42;1.17;;;18.00;58.30;;;16.55;47.56;100303.09;10443237;27;96738;-90
2022/07/16 01:45:00;;;;;;;1.73;0.90;;;17.90;58.40;;;16.57;47.67;100318.97;10440331;27;96614;-92
2022/07/16 01:50:04;;;;;;;2.90;1.35;;;17.90;58.60;;;16.57;47.94;100319.81;10403352;28;96508;-89
2022/07/16 01:55:08;;;;;;;2.70;1.17;;;17.90;58.90;;;16.51;48.15;100320.63;10420292;27;97144;-91
2022/07/16 02:00:12;;;;;;;1.67;0.88;;;17.80;59.10;;;16.44;48.35;100321.66;10421529;27;96722;-95
2022/07/16 02:05:15;;;;;;;2.50;1.27;;;17.70;59.50;;;16.33;48.74;100307.78;10390875;28;96613;-90
2022/07/16 02:10:18;;;;;;;2.10;1.40;;;17.70;59.80;;;16.30;49.01;100312.72;10437655;27;96694;-92
2022/07/16 02:15:21;;;;;;;1.75;1.00;;;17.60;59.90;;;16.29;49.16;100316.44;10421450;27;98585;-92
2022/07/16 02:20:25;;;;;;;2.67;1.20;;;17.60;60.00;;;16.24;49.25;100310.84;10425957;27;96619;-93
2022/07/16 02:25:28;;;;;;;2.33;1.15;;;17.60;60.10;;;16.22;49.10;100305.69;10443810;27;96718;-94
2022/07/16 02:30:31;;;;;;;2.75;1.30;;;17.60;60.10;;;16.17;49.31;100305.47;10448178;27;96799;-94
2022/07/16 02:35:36;;;;;;;2.00;1.10;;;17.50;60.10;;;16.09;49.47;100311.00;10424356;27;98242;-93
2022/07/16 02:40:41;;;;;;;2.58;1.00;;;17.40;60.20;;;15.99;49.68;100297.16;10439578;27;96906;-92
2022/07/16 02:45:44;;;;;;;5.18;1.00;;;17.30;60.50;;;15.89;49.92;100305.56;10435044;27;96809;-93
2022/07/16 02:50:48;;;;;;;4.78;1.35;;;17.20;60.70;;;15.86;49.92;100305.16;10409957;27;96587;-93
2022/07/16 02:55:51;;;;;;;2.17;1.02;;;17.20;60.90;;;15.82;50.30;100311.94;10416699;27;96935;-93
2022/07/16 03:00:54;;;;;;;4.13;0.98;;;17.10;61.10;;;15.73;50.60;100316.63;10438167;27;96747;-92
2022/07/16 03:05:57;;;;;;;1.80;1.15;;;17.00;61.40;;;15.62;51.08;100319.84;10413727;27;96606;-92
2022/07/16 03:11:00;;;;;;;3.38;1.60;;;16.90;61.80;;;15.55;50.98;100327.84;10415999;27;96570;-93
2022/07/16 03:16:03;;;;;;;2.85;1.15;;;16.90;62.10;;;15.49;51.10;100334.81;10411909;27;96683;-92
2022/07/16 03:21:07;;;;;;;3.70;1.13;;;16.80;61.90;;;15.52;51.24;100342.44;10423798;27;96535;-91
2022/07/16 03:26:10;;;;;;;3.95;1.60;;;16.90;61.90;;;15.56;51.29;100337.53;10423092;27;96654;-92
2022/07/16 03:31:13;;;;;;;3.35;1.40;;;16.90;61.90;;;15.65;51.14;100335.53;10437031;27;96585;-92
2022/07/16 03:36:16;;;;;;;2.33;1.27;;;17.00;62.00;;;15.78;51.20;100344.50;10423362;27;96500;-92
2022/07/16 03:41:19;;;;;;;2.67;1.50;;;17.10;62.10;;;15.89;50.96;100348.44;10422441;27;96610;-93
2022/07/16 03:46:22;;;;;;;1.30;0.90;;;17.20;62.20;;;16.02;51.09;100355.75;10419645;27;96587;-92
2022/07/16 03:51:25;;;;;;;1.85;1.17;;;17.30;62.10;;;16.07;51.07;100355.94;10424560;27;96758;-94
2022/07/16 03:56:29;;;;;;;4.90;1.33;;;17.30;62.30;;;16.08;51.05;100346.91;10446515;27;96497;-94
2022/07/16 04:01:32;;;;;;;1.67;1.10;;;17.40;62.30;;;16.18;50.99;100352.69;10444039;27;97506;-91
2022/07/16 04:06:35;;;;;;;2.40;1.17;;;17.50;62.30;;;16.24;50.83;100340.34;10421124;27;96607;-92
2022/07/16 04:11:38;;;;;;;6.40;1.10;;;17.50;62.30;;;16.36;50.84;100343.25;10444098;27;96507;-94
2022/07/16 04:16:42;;;;;;;3.28;1.15;;;17.60;62.30;;;16.46;50.87;100343.72;10441910;27;96576;-95
2022/07/16 04:21:46;;;;;;;2.25;1.58;;;17.70;62.30;;;16.54;50.67;100348.88;10451123;27;96568;-93
2022/07/16 04:26:49;;;;;;;1.67;1.10;;;17.80;62.30;;;16.67;50.51;100356.94;10444590;27;98195;-93
2022/07/16 04:31:52;;;;;;;2.42;1.23;;;17.90;62.10;;;16.83;50.80;100359.28;10441182;27;96555;-95
2022/07/16 04:36:55;;;;;;;2.95;1.38;;;18.10;62.40;;;17.01;50.82;100360.53;10460879;27;96623;-94
2022/07/16 04:42:02;;;;;;;4.68;1.30;;;18.20;62.20;;;17.16;50.51;100338.88;10463462;27;96663;-93
2022/07/16 04:47:05;;;;;;;1.10;0.85;;;18.40;62.10;;;17.37;50.37;100350.19;10448946;27;96449;-93
2022/07/16 04:52:08;;;;;;;1.83;0.90;;;18.60;61.70;;;17.58;49.88;100349.16;10419931;27;96539;-93
2022/07/16 04:57:11;;;;;;;4.85;1.17;;;18.80;61.40;;;17.73;48.87;100348.09;10408420;27;97486;-94
2022/07/16 05:07:35;;;;;;;2.55;0.90;;;19.10;60.50;;;18.10;48.34;100350.03;10450666;27;96724;-89
2022/07/16 05:12:38;;;;;;;2.45;1.10;;;19.30;60.20;;;18.31;47.63;100343.53;10409754;27;99652;-89
2022/07/16 05:17:42;;;;;;;2.55;1.13;;;19.50;59.70;;;18.52;47.05;100347.75;10421759;27;98213;-89
2022/07/16 05:22:45;;;;;;;2.70;1.13;;;19.70;59.30;;;18.67;46.04;100353.69;10422470;27;96651;-89
2022/07/16 05:27:49;;;;;;;2.78;0.98;;;19.90;58.50;;;18.89;46.58;100362.25;10403886;27;96648;-88
2022/07/16 05:32:53;;;;;;;2.10;1.00;;;20.00;58.70;;;19.12;45.88;100361.66;10427215;27;96553;-88
2022/07/16 05:37:56;;;;;;;1.77;0.98;;;20.20;58.40;;;19.35;45.66;100352.94;10432067;27;96570;-88
2022/07/16 05:42:59;;;;;;;3.17;1.02;;;20.40;58.10;;;19.65;44.89;100354.97;10404965;27;96568;-88
2022/07/16 05:48:02;;;;;;;4.43;1.40;;;20.70;57.50;;;19.83;44.79;100352.28;10424520;27;96612;-89
2022/07/16 05:53:05;;;;;;;2.55;1.10;;;21.00;57.50;;;20.00;44.17;100345.25;10440252;27;98814;-88
2022/07/16 05:58:08;;;;;;;1.80;1.05;;;21.10;57.00;;;20.18;43.53;100359.75;10424040;27;96639;-88
2022/07/16 06:03:11;;;;;;;3.90;1.17;;;21.30;56.60;;;20.33;42.92;100346.69;10437143;27;97785;-88
2022/07/16 06:08:14;;;;;;;1.50;0.90;;;21.50;56.10;;;20.47;43.16;100347.38;10439820;27;96593;-90
2022/07/16 06:13:17;;;;;;;3.20;1.02;;;21.60;55.90;;;20.66;42.83;100348.13;10406810;27;96627;-90
2022/07/16 06:18:20;;;;;;;2.20;1.00;;;21.80;55.50;;;20.80;41.54;100349.56;10396954;27;98076;-91
2022/07/16 06:23:24;;;;;;;2.80;1.00;;;21.90;54.90;;;20.89;40.97;100350.09;10409668;27;96542;-89
2022/07/16 06:28:27;;;;;;;1.17;0.88;;;22.00;54.10;;;21.09;41.10;100366.78;10414652;27;96719;-87
2022/07/16 06:33:30;;;;;;;1.83;0.95;;;22.20;54.10;;;21.22;40.88;100365.75;10432886;27;96571;-89
2022/07/16 06:38:33;;;;;;;1.80;1.00;;;22.30;54.30;;;21.43;40.78;100362.50;10445943;27;97673;-88
2022/07/16 06:43:37;;;;;;;2.65;1.10;;;22.50;54.00;;;21.69;40.30;100372.00;10438554;27;96628;-87
2022/07/16 06:48:40;;;;;;;2.42;1.05;;;22.80;53.70;;;21.95;39.50;100359.88;10420423;27;96632;-87
2022/07/16 06:53:43;;;;;;;4.90;1.00;;;23.10;52.60;;;22.14;38.07;100360.56;10439827;27;96674;-85
2022/07/16 06:58:46;;;;;;;4.22;0.98;;;23.20;51.90;;;22.30;38.35;100362.47;10419520;27;98498;-85
2022/07/16 07:03:50;;;;;;;4.90;1.10;;;23.40;51.80;;;22.41;36.43;100358.09;10420113;27;96776;-85
2022/07/16 07:08:53;;;;;;;2.80;1.05;;;23.60;50.00;;;22.61;36.98;100355.78;10416163;27;96677;-84
2022/07/16 07:13:57;;;;;;;1.98;1.13;;;23.70;50.40;;;22.79;35.77;100356.59;10430629;27;98439;-83
2022/07/16 07:19:00;;;;;;;2.75;0.80;;;23.90;49.20;;;23.00;35.82;100355.09;10415062;27;96641;-83
2022/07/16 07:24:04;;;;;;;2.15;1.00;;;24.10;49.90;;;23.19;35.10;100351.88;10382882;27;96514;-84
2022/07/16 07:29:27;;;;;;;2.08;1.05;;;24.30;48.70;;;23.47;34.85;100345.53;10437859;27;96674;-85
2022/07/16 07:34:30;;;;;;;2.90;0.80;;;24.60;48.40;;;23.72;33.74;100342.38;10421069;27;97504;-84
2022/07/16 07:39:34;;;;;;;2.75;1.08;;;24.90;47.90;;;23.82;33.76;100349.03;10421331;27;96533;-83
2022/07/16 07:44:37;;;;;;;1.33;0.82;;;25.10;47.50;;;23.81;33.03;100341.94;10463746;27;96688;-83
2022/07/16 07:49:40;;;;;;;1.70;1.00;;;25.20;46.70;;;23.84;33.73;100345.00;10467945;27;96515;-85
2022/07/16 07:54:46;;;;;;;1.77;1.02;;;25.20;46.90;;;23.82;33.02;100346.31;10431236;27;98721;-85
2022/07/16 07:59:49;;;;;;;4.63;1.02;;;25.10;46.40;;;23.84;32.95;100345.00;10425716;27;96665;-86
2022/07/16 08:04:52;;;;;;;2.30;1.15;;;25.00;46.30;;;23.82;32.53;100340.91;10428775;27;98497;-84
2022/07/16 08:09:56;;;;;;;2.28;1.00;;;25.00;46.20;;;23.93;33.07;100337.22;10443679;27;96796;-87
2022/07/16 08:14:59;;;;;;;3.83;1.27;;;25.10;46.70;;;23.95;32.28;100329.66;10429902;27;96823;-84
2022/07/16 08:20:04;;;;;;;2.97;0.90;;;25.10;46.10;;;24.06;32.52;100325.19;10427063;27;97374;-86
2022/07/16 08:30:30;;;;;;;1.98;1.05;;;25.10;45.80;;;24.56;31.80;100322.19;10441336;27;96720;-85
2022/07/16 08:35:34;;;;;;;2.83;1.17;;;25.50;45.60;;;24.82;31.09;100313.19;10423359;27;97516;-85
2022/07/16 08:40:42;;;;;;;1.75;1.08;;;25.80;45.20;;;25.08;30.63;100308.00;10435526;27;96740;-86
2022/07/16 08:45:46;;;;;;;4.53;0.85;;;26.10;45.00;;;25.20;29.82;100318.69;10446155;27;96673;-83
2022/07/16 08:50:52;;;;;;;1.88;1.10;;;26.30;44.00;;;25.23;29.53;100305.38;10413890;27;96730;-85
2022/07/16 08:55:55;;;;;;;3.08;0.98;;;26.30;43.80;;;25.38;30.02;100309.28;10420125;27;97601;-84
2022/07/16 09:00:59;;;;;;;2.08;0.80;;;26.40;44.00;;;25.50;29.79;100301.75;10432572;27;98538;-85
2022/07/16 09:06:03;;;;;;;2.10;1.00;;;26.50;43.80;;;25.66;29.42;100294.44;10424350;27;96809;-86
2022/07/16 09:11:25;;;;;;;2.50;0.90;;;26.60;43.50;;;25.84;28.62;100288.56;10422624;27;98907;-85
2022/07/16 09:16:53;;;;;;;41.30;3.22;;;26.80;43.10;;;26.06;29.61;100294.66;10429793;27;96713;-85
2022/07/16 09:22:12;;;;;;;2.60;1.10;;;27.00;43.60;;;26.32;28.56;100290.06;10435372;27;96620;-87
2022/07/16 09:27:22;;;;;;;1.98;1.02;;;27.30;43.10;;;26.62;28.47;100281.13;10425200;27;96608;-84
2022/07/16 09:32:39;;;;;;;2.92;0.88;;;27.60;43.20;;;26.74;28.15;100289.03;10455887;27;96801;-85
2022/07/16 09:37:55;;;;;;;4.50;1.20;;;27.70;42.50;;;26.90;28.64;100276.22;10400448;28;96637;-84
2022/07/16 09:43:04;;;;;;;2.17;1.20;;;27.80;43.00;;;27.03;28.84;100272.94;10419908;27;96729;-84
2022/07/16 09:48:30;;;;;;;2.20;1.20;;;28.00;43.20;;;26.98;28.24;100270.22;10397708;27;97322;-85
2022/07/16 09:53:38;;;;;;;3.15;1.60;;;27.90;42.50;;;26.87;28.41;100276.75;10417419;27;98555;-83
2022/07/16 09:58:55;;;;;;;1.93;1.23;;;27.80;43.00;;;26.85;28.69;100273.50;10417912;27;97483;-85
2022/07/16 10:04:03;;;;;;;2.97;1.10;;;27.80;42.80;;;26.93;28.66;100272.97;10456543;27;97411;-83
2022/07/16 10:09:06;;;;;;;3.35;1.35;;;27.90;43.30;;;26.95;28.22;100268.88;10414486;27;97843;-84
2022/07/16 10:14:10;;;;;;;2.80;1.30;;;27.90;42.60;;;26.97;28.49;100270.50;10408308;27;96733;-81
2022/07/16 10:19:14;;;;;;;2.67;1.15;;;27.90;42.90;;;27.05;28.88;100245.38;10435858;27;98549;-82
2022/07/16 10:24:16;;;;;;;3.03;1.10;;;28.00;43.20;;;27.21;28.48;100263.41;10436124;27;97317;-84
2022/07/16 10:29:40;;;;;;;2.63;1.40;;;28.10;42.90;;;27.25;28.07;100260.94;10432533;27;96663;-81
2022/07/16 10:34:45;;;;;;;2.53;1.50;;;28.20;43.00;;;27.10;27.96;100253.59;10419165;27;96592;-84
2022/07/16 10:40:10;;;;;;;2.35;1.30;;;28.10;42.50;;;27.21;28.18;100250.56;10439724;27;96631;-85
2022/07/16 10:45:17;;;;;;;2.85;1.10;;;28.10;42.60;;;27.30;28.33;100234.47;10437768;27;98122;-84
2022/07/16 10:50:26;;;;;;;3.60;1.35;;;28.20;42.90;;;27.50;28.25;100219.91;10454336;27;97251;-85
2022/07/16 10:55:36;;;;;;;3.25;1.30;;;28.40;43.00;;;27.69;28.38;100231.03;10418374;27;98061;-84
2022/07/16 11:00:39;;;;;;;1.88;1.20;;;28.60;42.90;;;27.76;27.06;100222.56;10435340;27;98256;-84
2022/07/16 11:05:43;;;;;;;2.42;1.23;;;28.70;42.00;;;27.85;27.62;100223.59;10455784;27;96562;-85
2022/07/16 11:10:49;;;;;;;5.32;1.10;;;28.70;42.40;;;27.97;28.08;100205.78;10438052;27;96529;-83
2022/07/16 11:15:52;;;;;;;2.67;1.45;;;28.80;42.70;;;28.01;27.40;100208.78;10418918;27;97353;-82
2022/07/16 11:21:07;;;;;;;3.17;1.42;;;29.00;42.20;;;28.13;27.25;100200.19;10431719;27;97992;-80
2022/07/16 11:26:10;;;;;;;5.15;1.50;;;29.20;42.10;;;28.37;27.24;100205.78;10437169;27;96656;-83
2022/07/16 11:31:15;;;;;;;2.95;1.33;;;29.30;42.00;;;28.46;27.70;100213.09;10437026;27;97268;-84
2022/07/16 11:36:28;;;;;;;2.88;1.50;;;29.40;42.10;;;28.30;27.02;100208.81;10447794;27;96597;-84
2022/07/16 11:41:33;;;;;;;2.90;1.20;;;29.30;41.70;;;28.07;27.26;100199.44;10456598;27;96440;-83
2022/07/16 11:46:52;;;;;;;3.90;1.58;;;29.10;41.90;;;27.90;27.69;100202.53;10434727;27;96661;-86
2022/07/16 11:52:00;;;;;;;5.93;1.83;;;28.90;42.20;;;27.83;27.87;100210.25;10421099;27;97124;-87
2022/07/16 11:57:09;;;;;;;2.35;1.55;;;28.80;42.30;;;28.12;27.69;100187.63;10436401;27;96706;-85
2022/07/16 12:02:17;;;;;;;3.20;1.30;;;28.90;42.70;;;28.43;27.32;100193.69;10455557;27;96425;-84
2022/07/16 12:07:25;;;;;;;2.58;1.40;;;29.30;42.20;;;28.61;26.92;100193.03;10451599;27;96687;-85
2022/07/16 12:12:34;;;;;;;1.77;1.30;;;29.50;41.80;;;28.70;26.66;100188.53;10422195;27;96549;-85
2022/07/16 12:17:40;;;;;;;3.08;1.52;;;29.60;41.60;;;28.96;26.28;100204.72;10451531;27;96580;-85
2022/07/16 12:23:02;;;;;;;1.75;1.40;;;29.80;41.40;;;29.19;26.64;100187.50;10454446;27;96613;-87
2022/07/16 12:28:08;;;;;;;2.92;1.27;;;30.00;41.50;;;29.57;25.84;100185.69;10452947;27;96697;-85
2022/07/16 12:33:22;;;;;;;2.55;1.58;;;30.40;41.30;;;29.89;25.66;100186.88;10452181;27;98266;-84
2022/07/16 12:38:59;;;;;;;3.72;1.40;;;30.80;40.50;;;29.96;24.62;100178.28;10418698;27;96850;-86
2022/07/16 12:44:18;;;;;;;4.82;1.40;;;30.90;40.00;;;29.75;24.61;100175.84;10456686;27;96612;-86
2022/07/16 12:49:25;;;;;;;3.88;1.83;;;30.80;40.00;;;29.83;25.24;100188.06;10459328;27;97008;-84
2022/07/16 12:58:47;;;;;;;3.63;1.27;;;30.80;40.60;;;30.03;25.28;100175.97;10461514;27;96586;-86
2022/07/16 12:59:52;;;;;;;3.38;1.10;;;30.90;40.30;;;30.14;24.56;100165.72;10459911;27;96631;-84
2022/07/16 13:04:55;;;;;;;4.70;1.45;;;31.00;39.90;;;29.93;24.05;100168.75;10423658;27;96727;-86
2022/07/16 13:09:59;;;;;;;3.63;1.35;;;30.90;39.60;;;29.78;24.40;100179.91;10445793;27;96967;-86
2022/07/16 13:15:02;;;;;;;3.15;1.48;;;30.70;39.90;;;29.35;24.54;100170.91;10445293;27;97556;-87
2022/07/16 13:20:06;;;;;;;6.10;1.50;;;30.30;39.60;;;28.92;25.12;100184.50;10457459;27;98319;-88
2022/07/16 13:25:09;;;;;;;4.38;1.40;;;29.90;40.10;;;28.83;25.66;100165.16;10443082;27;96514;-87
2022/07/16 13:30:12;;;;;;;3.75;1.58;;;29.70;40.60;;;28.89;25.45;100179.59;10439145;27;97692;-89
2022/07/16 13:35:15;;;;;;;4.45;2.00;;;29.70;40.20;;;28.78;24.95;100173.41;10423375;27;96595;-86
2022/07/16 13:40:18;;;;;;;3.60;1.45;;;29.60;39.90;;;28.89;25.44;100188.63;10425832;27;96506;-88
2022/07/16 13:45:22;;;;;;;5.13;1.40;;;29.70;40.00;;;29.20;24.87;100180.09;10445797;27;98134;-82
2022/07/16 13:50:25;;;;;;;2.42;1.23;;;30.00;40.10;;;29.42;24.45;100172.16;10422431;27;96609;-82
2022/07/16 13:55:28;;;;;;;2.80;1.23;;;30.20;39.60;;;29.64;24.47;100184.50;10425801;27;97997;-80
2022/07/16 14:00:32;;;;;;;6.05;1.38;;;30.50;39.40;;;29.69;24.60;100176.19;10416032;27;98074;-81
2022/07/16 14:05:35;;;;;;;3.67;1.20;;;30.60;39.70;;;29.70;24.25;100162.25;10420124;27;97200;-83
2022/07/16 14:10:39;;;;;;;3.33;1.00;;;30.70;39.00;;;29.96;23.89;100159.09;10415874;28;96661;-82
2022/07/16 14:15:45;;;;;;;2.78;1.50;;;30.90;38.50;;;30.20;22.61;100161.78;10422594;27;96794;-83
2022/07/16 14:20:48;;;;;;;3.33;1.60;;;31.10;37.90;;;29.78;23.01;100163.50;10424309;27;96568;-84
2022/07/16 14:25:51;;;;;;;5.35;1.27;;;30.80;37.80;;;29.56;23.16;100170.34;10438593;27;96597;-83
2022/07/16 14:30:55;;;;;;;3.42;1.60;;;30.40;38.10;;;29.43;23.26;100160.09;10413797;27;97184;-83
2022/07/16 14:35:59;;;;;;;2.88;1.30;;;30.30;38.10;;;29.44;23.37;100158.97;10430960;27;96914;-86
2022/07/16 14:41:02;;;;;;;3.83;1.50;;;30.20;38.00;;;29.19;23.59;100156.59;10444575;27;98833;-83
2022/07/16 14:46:05;;;;;;;2.10;1.13;;;30.00;38.20;;;29.06;24.43;100160.84;10430582;27;97248;-86
2022/07/16 14:51:08;;;;;;;3.20;1.20;;;29.80;39.10;;;29.04;25.03;100155.66;10439525;27;98750;-83
2022/07/16 14:56:11;;;;;;;4.75;1.50;;;29.80;39.70;;;29.24;24.39;100151.88;10432765;27;97347;-81
2022/07/16 15:01:14;;;;;;;3.20;1.20;;;30.00;39.70;;;29.25;24.70;100139.81;10425034;27;97555;-81
2022/07/16 15:06:17;;;;;;;5.00;1.23;;;30.00;39.60;;;29.30;24.93;100149.88;10444983;27;98188;-83
2022/07/16 15:11:20;;;;;;;3.08;1.30;;;30.10;39.70;;;29.38;24.73;100138.25;10446359;27;96768;-82
2022/07/16 15:16:23;;;;;;;4.53;1.30;;;30.10;39.80;;;29.46;24.23;100140.38;10418507;27;96970;-83
2022/07/16 15:21:27;;;;;;;2.88;1.15;;;30.20;39.40;;;29.44;24.23;100136.28;10417568;27;97279;-84
2022/07/16 15:26:30;;;;;;;2.22;1.40;;;30.20;39.10;;;29.49;23.97;100138.94;10434415;27;97374;-91
2022/07/16 15:31:36;;;;;;;2.65;0.95;;;30.20;39.20;;;29.53;23.90;100126.34;10445340;27;96783;-86
2022/07/16 15:36:40;;;;;;;4.05;1.20;;;30.20;38.90;;;29.43;23.48;100130.00;10438321;27;97137;-90
2022/07/16 15:41:43;;;;;;;1.98;1.23;;;30.20;38.40;;;29.30;24.04;100137.00;10452976;27;96599;-88
2022/07/16 15:46:46;;;;;;;2.05;1.13;;;30.10;38.60;;;29.28;23.92;100138.41;10423277;27;98593;-85
2022/07/16 15:51:49;;;;;;;3.17;1.20;;;30.00;38.90;;;29.17;24.49;100145.13;10427185;27;96848;-87
2022/07/16 15:56:52;;;;;;;2.90;1.30;;;29.90;39.30;;;28.81;24.86;100148.25;10409344;27;97595;-87
2022/07/16 16:01:55;;;;;;;1.98;1.10;;;29.70;39.60;;;28.75;25.13;100146.66;10401158;27;98380;-84
2022/07/16 16:06:59;;;;;;;3.08;1.38;;;29.50;40.00;;;28.86;26.02;100159.13;10413167;27;97844;-85
2022/07/16 16:12:11;;;;;;;4.20;1.60;;;29.60;40.50;;;28.95;25.61;100157.41;10410051;27;98757;-87
2022/07/16 16:17:14;;;;;;;4.32;1.50;;;29.70;40.60;;;28.92;25.90;100152.53;10432773;27;98130;-86
2022/07/16 16:22:18;;;;;;;3.25;1.63;;;29.70;40.60;;;28.91;26.00;100163.69;10441908;27;96604;-88
2022/07/16 16:27:21;;;;;;;3.60;1.50;;;29.70;40.80;;;28.89;26.11;100157.72;10417766;27;96773;-87
2022/07/16 16:32:25;;;;;;;2.33;1.35;;;29.70;40.80;;;29.05;26.22;100159.22;10415739;27;98043;-85
2022/07/16 16:37:28;;;;;;;1.77;1.38;;;29.80;41.00;;;29.24;25.63;100164.72;10414099;27;96732;-87
2022/07/16 16:42:31;;;;;;;3.28;1.30;;;30.00;40.60;;;29.19;25.45;100157.41;10420744;27;96978;-86
2022/07/16 16:47:34;;;;;;;2.05;1.50;;;30.00;40.40;;;29.00;25.01;100160.09;10449021;27;98153;-88
2022/07/16 16:52:38;;;;;;;2.28;1.20;;;29.80;39.80;;;28.70;25.18;100165.84;10438055;27;96657;-84
2022/07/16 16:57:42;;;;;;;2.13;1.10;;;29.60;39.70;;;28.20;25.40;100168.75;10408124;27;97262;-83
2022/07/16 17:02:45;;;;;;;2.30;1.40;;;29.10;40.00;;;27.73;26.10;100167.41;10459297;27;96489;-84
2022/07/16 17:07:48;;;;;;;2.55;1.48;;;28.70;40.60;;;27.61;26.46;100163.38;10435549;27;97498;-84
2022/07/16 17:12:52;;;;;;;3.53;1.30;;;28.50;40.80;;;27.51;26.34;100174.34;10414049;27;98819;-85
2022/07/16 17:17:55;;;;;;;3.10;1.55;;;28.40;40.70;;;27.38;27.00;100173.84;10443910;27;96661;-85
2022/07/16 17:22:58;;;;;;;2.20;1.40;;;28.30;41.10;;;27.30;27.25;100171.72;10423640;27;96591;-85
2022/07/16 17:28:22;;;;;;;3.95;1.45;;;28.20;41.40;;;27.14;26.82;100183.78;10455922;27;96730;-83
2022/07/16 17:33:25;;;;;;;2.78;1.55;;;28.00;41.00;;;26.89;26.99;100188.16;10427552;27;96656;-84
2022/07/16 17:38:28;;;;;;;2.30;1.30;;;27.80;40.80;;;26.76;27.12;100194.19;10419183;27;96944;-85
2022/07/16 17:43:31;;;;;;;3.33;1.25;;;27.70;40.80;;;26.64;26.79;100190.94;10433547;27;97324;-84
2022/07/16 17:53:56;;;;;;;2.28;1.30;;;27.50;40.90;;;26.46;27.55;100196.97;10453299;27;96820;-86
2022/07/16 17:58:59;;;;;;;2.90;1.15;;;27.40;41.10;;;26.32;27.00;100208.34;10436062;27;96982;-83
2022/07/16 18:04:02;;;;;;;3.53;1.27;;;27.30;40.90;;;26.20;27.07;100212.41;10419174;27;98338;-87
2022/07/16 18:09:05;;;;;;;1.80;1.25;;;27.10;40.60;;;26.13;26.85;100215.41;10435641;27;96695;-86
2022/07/16 18:14:10;;;;;;;3.13;1.50;;;27.00;40.60;;;26.03;27.04;100229.00;10425407;27;98800;-83
2022/07/16 18:19:13;;;;;;;1.45;1.02;;;27.00;40.60;;;25.94;27.01;100233.34;10443799;27;97832;-84
2022/07/16 18:24:16;;;;;;;3.58;1.27;;;26.90;40.70;;;25.81;26.83;100240.94;10417256;27;97397;-85
2022/07/16 18:29:20;;;;;;;2.00;0.90;;;26.80;40.30;;;25.65;26.72;100247.38;10415907;27;96707;-86
2022/07/16 18:34:23;;;;;;;2.38;1.23;;;26.60;40.30;;;25.51;26.65;100257.13;10439032;27;96648;-84
2022/07/16 18:39:27;;;;;;;2.85;1.00;;;26.50;40.40;;;25.34;27.05;100273.63;10425330;27;96502;-84
2022/07/16 18:44:30;;;;;;;1.92;1.20;;;26.30;40.40;;;25.21;27.30;100283.06;10439342;27;96690;-85
2022/07/16 18:49:34;;;;;;;3.22;1.10;;;26.20;40.50;;;25.10;27.37;100292.25;10440756;27;96556;-87
2022/07/16 18:54:37;;;;;;;1.67;1.00;;;26.10;40.60;;;24.97;27.51;100298.09;10438009;27;96605;-85
2022/07/16 18:59:42;;;;;;;2.88;1.20;;;26.00;40.80;;;24.83;27.68;100305.88;10437290;27;97458;-85
2022/07/16 19:04:45;;;;;;;5.03;1.38;;;25.90;40.90;;;24.68;27.93;100320.16;10440496;27;98160;-85
2022/07/16 19:09:48;;;;;;;1.77;1.15;;;25.70;41.10;;;24.54;28.40;100332.50;10423487;27;96570;-85
2022/07/16 19:14:51;;;;;;;1.63;0.95;;;25.60;41.40;;;24.40;28.89;100339.41;10436640;27;97568;-85
2022/07/16 19:19:54;;;;;;;2.83;1.00;;;25.40;41.80;;;24.33;29.14;100345.03;10429006;27;96555;-86
2022/07/16 19:24:57;;;;;;;2.60;0.95;;;25.30;42.10;;;24.27;29.65;100354.19;10421359;27;99874;-86
2022/07/16 19:29:59;;;;;;;2.10;1.10;;;25.30;42.60;;;24.25;29.74;100362.59;10418393;27;96660;-85
2022/07/16 19:35:03;;;;;;;2.50;1.15;;;25.20;42.60;;;24.21;29.93;100360.63;10422437;27;97087;-86
2022/07/16 19:40:06;;;;;;;1.50;0.93;;;25.20;42.80;;;24.16;29.96;100369.53;10438590;27;96607;-86
2022/07/16 19:45:10;;;;;;;2.35;1.20;;;25.10;42.90;;;24.09;30.19;100378.94;10436292;27;97020;-85
2022/07/16 19:50:13;;;;;;;1.70;1.00;;;25.10;43.10;;;23.99;30.47;100387.78;10426269;27;96834;-85
2022/07/16 20:00:38;;;;;;;2.80;1.17;;;24.90;43.40;;;23.88;30.68;100410.44;10445107;27;96662;-84
2022/07/16 20:05:41;;;;;;;3.40;1.05;;;24.90;43.50;;;23.84;30.63;100409.28;10450385;27;96634;-86
2022/07/16 20:10:45;;;;;;;2.25;0.80;;;24.90;43.50;;;23.81;30.00;100420.63;10445221;27;96537;-85
2022/07/16 20:15:49;;;;;;;1.85;0.80;;;24.80;43.00;;;23.77;29.76;100418.44;10458430;27;97726;-88
2022/07/16 20:20:52;;;;;;;1.08;0.75;;;24.80;42.80;;;23.75;30.32;100423.31;10438707;27;98813;-85
2022/07/16 20:25:55;;;;;;;3.78;0.77;;;24.80;43.00;;;23.66;29.86;100429.38;10454289;27;98745;-86
2022/07/16 20:30:58;;;;;;;1.50;0.70;;;24.70;42.70;;;23.59;29.72;100434.94;10442149;27;98428;-85
2022/07/16 20:36:01;;;;;;;3.75;0.75;;;24.60;42.60;;;23.49;29.90;100445.63;10430397;27;96586;-86
2022/07/16 20:41:07;;;;;;;2.75;1.00;;;24.50;42.80;;;23.37;30.16;100447.59;10437371;27;96804;-85
2022/07/16 20:46:10;;;;;;;4.10;1.25;;;24.40;43.00;;;23.23;30.54;100452.53;10428536;27;97677;-86
2022/07/16 20:51:13;;;;;;;6.93;1.10;;;24.30;43.40;;;23.07;30.76;100446.00;10422426;27;96726;-86
2022/07/16 20:56:17;;;;;;;3.22;1.08;;;24.10;43.50;;;22.87;31.56;100468.16;10436361;27;98257;-85
2022/07/16 21:01:20;;;;;;;2.22;0.88;;;24.00;43.90;;;22.66;31.76;100475.03;10404741;27;98114;-84
2022/07/16 21:06:24;;;;;;;5.10;0.82;;;23.80;44.10;;;22.43;32.13;100483.22;10424160;27;98382;-84
2022/07/16 21:11:27;;;;;;;1.85;0.90;;;23.60;44.50;;;22.23;32.19;100502.56;10457344;27;97803;-84
2022/07/16 21:16:30;;;;;;;2.20;1.00;;;23.40;44.80;;;22.06;33.06;100510.53;10455905;27;96490;-84
2022/07/16 21:21:34;;;;;;;2.17;0.90;;;23.20;45.10;;;21.95;33.06;100518.66;10441380;27;98688;-84